Time;durP1;ratioP1;P1;durP2;ratioP2;P2;SDS_P1;SDS_P2;PMS_P1;PMS_P2;Temp;Humidity;BMP_temperature;BMP_pressure;BME280_temperature;BME280_humidity;BME280_pressure;Samples;Min_cycle;Max_cycle;Signal;HPM_P1;HPM_P2
2021/01/21 00:00:05;;;;;;;4.50;2.33;;;5.00;99.90;;;;;;4958978;28;20023;-81
2021/01/21 00:02:30;;;;;;;6.85;2.33;;;5.00;99.90;;;;;;4957601;29;20118;-81
2021/01/21 00:04:56;;;;;;;3.85;2.40;;;4.90;99.90;;;;;;4958910;28;20059;-82
2021/01/21 00:07:22;;;;;;;4.22;2.47;;;4.80;99.90;;;;;;4957608;29;20031;-82
2021/01/21 00:09:47;;;;;;;3.90;2.17;;;4.70;99.90;;;;;;4958814;28;20027;-82
2021/01/21 00:12:13;;;;;;;4.60;2.70;;;4.80;99.90;;;;;;4958980;28;20106;-81
2021/01/21 00:14:39;;;;;;;4.63;2.08;;;4.70;99.90;;;;;;4957415;29;20438;-81
2021/01/21 00:17:04;;;;;;;3.40;2.30;;;4.70;99.90;;;;;;4957331;29;20127;-81
2021/01/21 00:19:30;;;;;;;3.63;2.03;;;4.80;99.90;;;;;;4958910;28;20036;-81
2021/01/21 00:21:56;;;;;;;3.40;2.03;;;4.80;99.90;;;;;;4957317;29;20026;-81
2021/01/21 00:24:21;;;;;;;5.60;2.30;;;4.80;99.90;;;;;;4958537;28;20102;-82
2021/01/21 00:26:47;;;;;;;3.47;2.03;;;4.70;99.90;;;;;;4958473;28;20035;-82
2021/01/21 00:29:13;;;;;;;2.92;1.95;;;4.70;99.90;;;;;;4957263;29;20038;-82
2021/01/21 00:31:38;;;;;;;4.00;2.28;;;4.70;99.90;;;;;;4957202;29;20023;-81
2021/01/21 00:34:05;;;;;;;2.38;2.03;;;4.80;99.90;;;;;;4957152;29;20038;-82
2021/01/21 00:36:31;;;;;;;3.15;1.80;;;4.80;99.90;;;;;;4956924;28;20037;-81
2021/01/21 00:38:57;;;;;;;3.28;1.85;;;4.80;99.90;;;;;;4958293;28;20110;-81
2021/01/21 00:41:22;;;;;;;4.57;2.50;;;4.90;99.90;;;;;;4958229;29;20379;-81
2021/01/21 00:43:48;;;;;;;3.88;1.98;;;5.00;99.90;;;;;;4956114;28;20074;-81
2021/01/21 00:46:14;;;;;;;4.25;1.80;;;5.00;99.90;;;;;;4956503;29;20495;-82
2021/01/21 00:48:41;;;;;;;5.10;1.80;;;5.10;99.90;;;;;;4956817;29;20491;-81
2021/01/21 00:51:06;;;;;;;4.10;2.00;;;5.10;99.90;;;;;;4956845;29;20122;-82
2021/01/21 00:53:32;;;;;;;3.25;1.60;;;5.10;99.90;;;;;;4956776;29;20196;-82
2021/01/21 00:55:58;;;;;;;2.97;1.80;;;5.10;99.90;;;;;;4957114;29;20483;-82
2021/01/21 00:58:23;;;;;;;2.83;1.70;;;5.10;99.90;;;;;;4956694;29;20024;-81
2021/01/21 01:00:49;;;;;;;4.25;1.95;;;5.20;99.90;;;;;;4956624;29;20039;-82
2021/01/21 01:03:15;;;;;;;5.20;1.77;;;5.20;99.90;;;;;;4956580;29;20020;-81
2021/01/21 01:05:40;;;;;;;3.17;1.50;;;5.20;99.90;;;;;;4958070;28;20023;-82
2021/01/21 01:08:06;;;;;;;4.55;2.13;;;5.30;99.90;;;;;;4956517;29;20035;-82
2021/01/21 01:10:32;;;;;;;4.22;1.77;;;5.30;99.90;;;;;;4956466;29;20151;-82
2021/01/21 01:12:57;;;;;;;4.07;1.50;;;5.30;99.90;;;;;;4957615;29;20034;-81
2021/01/21 01:15:31;;;;;;;2.55;1.70;;;5.30;99.90;;;;;;4956330;29;20036;-82
2021/01/21 01:17:56;;;;;;;2.08;1.60;;;5.30;99.90;;;;;;4956416;29;20110;-81
2021/01/21 01:20:22;;;;;;;3.97;2.00;;;5.30;99.90;;;;;;4956250;29;20502;-82
2021/01/21 01:22:55;;;;;;;4.35;2.05;;;5.30;99.90;;;;;;4956205;29;20024;-82
2021/01/21 01:25:22;;;;;;;2.60;1.70;;;5.10;99.90;;;;;;4956236;29;20431;-81
2021/01/21 01:27:48;;;;;;;1.95;1.52;;;5.00;99.90;;;;;;4956444;29;20039;-82
2021/01/21 01:30:15;;;;;;;4.53;1.88;;;5.10;99.90;;;;;;4956111;29;20031;-82
2021/01/21 01:32:41;;;;;;;3.03;1.52;;;5.20;99.90;;;;;;4957355;28;20031;-82
2021/01/21 01:35:07;;;;;;;2.95;1.88;;;5.20;99.90;;;;;;4955950;29;20444;-81
2021/01/21 01:37:33;;;;;;;4.22;1.90;;;5.20;99.90;;;;;;4955882;28;20479;-81
2021/01/21 01:39:59;;;;;;;3.75;2.15;;;5.20;99.90;;;;;;4955908;29;20027;-81
2021/01/21 01:42:25;;;;;;;3.15;1.70;;;5.20;99.90;;;;;;4957192;28;20034;-82
2021/01/21 01:44:50;;;;;;;3.75;1.88;;;5.10;99.90;;;;;;4956942;28;20028;-82
2021/01/21 01:47:16;;;;;;;2.28;1.40;;;5.10;99.90;;;;;;4957073;28;20098;-82
2021/01/21 01:49:44;;;;;;;2.55;1.80;;;5.00;99.90;;;;;;4957300;28;20550;-82
2021/01/21 01:52:09;;;;;;;3.13;1.63;;;5.00;99.90;;;;;;4957490;28;20118;-82
2021/01/21 01:54:35;;;;;;;3.40;1.83;;;4.90;99.90;;;;;;4955623;29;20118;-81
2021/01/21 01:57:02;;;;;;;3.13;1.67;;;4.90;99.90;;;;;;4955331;28;20023;-82
2021/01/21 01:59:29;;;;;;;19.50;1.92;;;4.90;99.90;;;;;;4956824;28;20506;-82
2021/01/21 02:01:55;;;;;;;3.55;1.90;;;4.90;99.90;;;;;;4955536;29;20030;-82
2021/01/21 02:04:21;;;;;;;4.68;1.98;;;4.90;99.90;;;;;;4956756;28;20031;-82
2021/01/21 02:06:46;;;;;;;4.47;2.00;;;4.90;99.90;;;;;;4955496;29;20416;-82
2021/01/21 02:09:13;;;;;;;5.60;2.20;;;4.90;99.90;;;;;;4955424;29;20129;-81
2021/01/21 02:11:53;;;;;;;6.63;2.00;;;4.90;99.90;;;;;;4955331;29;20114;-81
2021/01/21 02:14:41;;;;;;;5.78;2.20;;;4.90;99.90;;;;;;4955329;29;20027;-82
2021/01/21 02:17:12;;;;;;;4.63;1.70;;;5.00;99.90;;;;;;4955170;29;20034;-82
2021/01/21 02:20:10;;;;;;;3.40;1.80;;;5.00;99.90;;;;;;4955252;29;20027;-82
2021/01/21 02:23:13;;;;;;;2.78;1.80;;;5.00;99.90;;;;;;4956480;28;20541;-82
2021/01/21 02:25:42;;;;;;;3.17;1.80;;;4.90;99.90;;;;;;4955100;29;20023;-82
2021/01/21 02:28:08;;;;;;;2.80;1.65;;;4.90;99.90;;;;;;4955090;29;20483;-82
2021/01/21 02:30:55;;;;;;;4.70;1.80;;;4.80;99.90;;;;;;4955030;29;20035;-82
2021/01/21 02:33:43;;;;;;;5.38;1.75;;;4.80;99.90;;;;;;4956225;28;20031;-82
2021/01/21 02:36:15;;;;;;;2.83;1.73;;;4.80;99.90;;;;;;4956115;28;20031;-82
2021/01/21 02:38:44;;;;;;;2.85;1.80;;;4.80;99.90;;;;;;4956150;28;20028;-82
2021/01/21 02:41:10;;;;;;;4.30;1.80;;;4.80;99.90;;;;;;4956103;28;20100;-82
2021/01/21 02:43:35;;;;;;;4.15;1.77;;;4.70;99.90;;;;;;4956322;28;20471;-82
2021/01/21 02:46:01;;;;;;;4.18;1.55;;;4.80;99.90;;;;;;4954552;29;20051;-82
2021/01/21 02:48:27;;;;;;;12.15;4.28;;;4.80;99.90;;;;;;4956017;28;20034;-82
2021/01/21 02:51:02;;;;;;;5.75;2.35;;;4.80;99.90;;;;;;4955954;28;20487;-82
2021/01/21 02:53:30;;;;;;;5.05;1.80;;;4.70;99.90;;;;;;4954679;29;20023;-82
2021/01/21 02:56:06;;;;;;;3.40;1.70;;;4.80;99.90;;;;;;4956071;28;20027;-82
2021/01/21 02:58:37;;;;;;;6.88;1.95;;;4.70;99.90;;;;;;4955885;28;20098;-82
2021/01/21 03:01:04;;;;;;;4.05;1.85;;;4.90;99.90;;;;;;4956093;28;20024;-83
2021/01/21 03:03:32;;;;;;;4.95;1.77;;;4.80;99.90;;;;;;4954531;29;20387;-82
2021/01/21 03:06:01;;;;;;;3.47;1.70;;;4.80;99.90;;;;;;4955979;28;20126;-81
2021/01/21 03:08:27;;;;;;;2.80;1.80;;;4.80;99.90;;;;;;4955132;28;20023;-82
2021/01/21 03:11:07;;;;;;;2.05;1.60;;;5.00;99.90;;;;;;4955672;28;20499;-82
2021/01/21 03:13:33;;;;;;;3.95;1.63;;;5.10;99.90;;;;;;4954431;29;20033;-82
2021/01/21 03:15:58;;;;;;;3.97;1.88;;;5.10;99.90;;;;;;4955479;28;20031;-82
2021/01/21 03:18:24;;;;;;;4.07;1.52;;;5.10;99.90;;;;;;4954551;29;20055;-81
2021/01/21 03:20:49;;;;;;;4.32;1.70;;;5.10;99.90;;;;;;4955523;28;20031;-81
2021/01/21 03:23:15;;;;;;;3.10;1.58;;;5.20;99.90;;;;;;4954243;29;20020;-81
2021/01/21 03:25:41;;;;;;;4.47;1.50;;;5.10;99.90;;;;;;4954230;29;20027;-81
2021/01/21 03:28:06;;;;;;;1.95;1.30;;;5.10;99.90;;;;;;4954264;29;20489;-81
2021/01/21 03:30:32;;;;;;;2.47;1.77;;;5.20;99.90;;;;;;4954190;29;20475;-81
2021/01/21 03:32:59;;;;;;;2.70;1.70;;;5.20;99.90;;;;;;4955419;28;20027;-81
2021/01/21 03:35:25;;;;;;;2.67;1.38;;;5.20;99.90;;;;;;4955639;28;20020;-81
2021/01/21 03:37:51;;;;;;;2.22;1.30;;;5.10;99.90;;;;;;4955343;28;20023;-81
2021/01/21 03:40:17;;;;;;;3.03;1.70;;;5.10;99.90;;;;;;4954116;29;20028;-82
2021/01/21 03:42:42;;;;;;;3.50;1.70;;;5.10;99.90;;;;;;4954101;29;20031;-81
2021/01/21 03:45:09;;;;;;;3.30;1.45;;;5.30;99.90;;;;;;4955319;28;20384;-81
2021/01/21 03:47:34;;;;;;;3.08;1.75;;;5.30;99.90;;;;;;4954116;29;20502;-82
2021/01/21 03:50:00;;;;;;;2.45;1.73;;;5.30;99.90;;;;;;4954092;29;20019;-81
2021/01/21 03:52:26;;;;;;;4.10;1.55;;;5.30;99.90;;;;;;4955252;28;20026;-81
2021/01/21 03:54:52;;;;;;;5.70;1.70;;;5.40;99.90;;;;;;4953994;29;20024;-81
2021/01/21 03:57:17;;;;;;;4.45;2.05;;;5.40;99.90;;;;;;4953835;29;20027;-81
2021/01/21 03:59:43;;;;;;;3.95;1.40;;;5.30;99.90;;;;;;4955213;28;20364;-81
2021/01/21 04:02:09;;;;;;;4.05;1.60;;;5.40;99.90;;;;;;4953874;29;20023;-81
2021/01/21 04:04:34;;;;;;;4.03;1.85;;;5.40;99.90;;;;;;4955667;28;20026;-82
2021/01/21 04:07:00;;;;;;;3.95;1.60;;;5.30;99.90;;;;;;4955417;28;20027;-81
2021/01/21 04:09:26;;;;;;;2.33;1.60;;;5.30;99.90;;;;;;4953852;29;20035;-81
2021/01/21 04:11:52;;;;;;;1.58;1.30;;;5.40;99.90;;;;;;4953813;29;20118;-81
2021/01/21 04:14:18;;;;;;;3.38;1.58;;;5.60;99.90;;;;;;4955330;28;20418;-81
2021/01/21 04:16:43;;;;;;;2.45;1.67;;;5.60;99.90;;;;;;4953713;29;20064;-81
2021/01/21 04:19:09;;;;;;;4.20;2.30;;;5.60;99.90;;;;;;4955553;28;20031;-82
2021/01/21 04:21:35;;;;;;;3.38;2.25;;;5.60;99.90;;;;;;4957397;29;20046;-81
2021/01/21 04:24:01;;;;;;;6.40;2.10;;;5.50;99.90;;;;;;4957340;29;20119;-82
2021/01/21 04:26:27;;;;;;;2.60;1.70;;;5.50;99.90;;;;;;4958587;28;20491;-82
2021/01/21 04:28:53;;;;;;;4.70;1.40;;;5.50;99.90;;;;;;4958769;28;20147;-81
2021/01/21 04:31:19;;;;;;;4.65;1.60;;;5.50;99.90;;;;;;4957203;29;20027;-81
2021/01/21 04:33:45;;;;;;;3.97;1.65;;;5.60;99.90;;;;;;4958688;28;20035;-81
2021/01/21 04:36:10;;;;;;;3.95;1.70;;;5.70;99.90;;;;;;4956976;28;20033;-81
2021/01/21 04:38:36;;;;;;;5.50;1.60;;;5.80;99.90;;;;;;4958362;28;20020;-81
2021/01/21 04:41:02;;;;;;;2.53;1.70;;;5.90;99.90;;;;;;4958269;28;20501;-81
2021/01/21 04:43:28;;;;;;;3.33;1.67;;;5.90;99.90;;;;;;4958256;28;20031;-81
2021/01/21 04:45:55;;;;;;;4.75;1.90;;;5.80;99.90;;;;;;4958165;28;20069;-81
2021/01/21 04:48:21;;;;;;;4.20;1.60;;;5.80;99.90;;;;;;4956890;29;20506;-80
2021/01/21 04:50:48;;;;;;;2.42;1.40;;;5.90;99.90;;;;;;4956866;29;20035;-81
2021/01/21 04:53:16;;;;;;;2.30;1.42;;;6.00;99.90;;;;;;4958121;28;20035;-81
2021/01/21 04:55:45;;;;;;;2.00;1.50;;;6.20;99.90;;;;;;4956667;29;20118;-81
2021/01/21 04:58:14;;;;;;;5.32;1.42;;;6.10;99.90;;;;;;4956712;29;20073;-81
2021/01/21 05:00:41;;;;;;;5.18;1.58;;;6.30;99.90;;;;;;4956671;29;20443;-80
2021/01/21 05:03:08;;;;;;;2.80;1.50;;;6.40;99.90;;;;;;4956899;29;20087;-81
2021/01/21 05:05:34;;;;;;;3.70;1.48;;;6.50;99.90;;;;;;4957845;28;20031;-81
2021/01/21 05:08:01;;;;;;;2.92;1.30;;;6.50;99.90;;;;;;4957788;28;20055;-81
2021/01/21 05:10:28;;;;;;;2.72;1.33;;;6.50;99.90;;;;;;4957761;28;20532;-81
2021/01/21 05:12:54;;;;;;;2.47;1.38;;;6.50;99.90;;;;;;4957994;28;20361;-81
2021/01/21 05:15:19;;;;;;;3.08;1.60;;;6.50;99.90;;;;;;4957619;28;20100;-81
2021/01/21 05:17:45;;;;;;;3.05;1.58;;;6.50;99.90;;;;;;4957616;28;20098;-81
2021/01/21 05:20:11;;;;;;;3.50;1.50;;;6.60;99.90;;;;;;4957609;28;20058;-82
2021/01/21 05:22:38;;;;;;;4.68;1.52;;;6.60;99.90;;;;;;4957572;28;20019;-81
2021/01/21 05:25:05;;;;;;;2.58;1.42;;;6.70;99.90;;;;;;4957517;28;20493;-82
2021/01/21 05:27:32;;;;;;;1.98;1.30;;;6.70;99.90;;;;;;4956207;29;20031;-82
2021/01/21 05:30:00;;;;;;;3.83;1.55;;;6.70;99.90;;;;;;4955780;28;20070;-81
2021/01/21 05:32:26;;;;;;;6.28;1.58;;;6.60;99.90;;;;;;4956084;29;20031;-82
2021/01/21 05:34:52;;;;;;;4.65;1.30;;;6.70;99.90;;;;;;4957312;28;20435;-81
2021/01/21 05:37:20;;;;;;;2.80;1.50;;;6.80;99.90;;;;;;4957125;28;20027;-81
2021/01/21 05:39:46;;;;;;;3.45;1.50;;;6.70;99.90;;;;;;4957205;28;20079;-81
2021/01/21 05:42:13;;;;;;;3.22;1.42;;;6.60;99.90;;;;;;4955986;29;20034;-82
2021/01/21 05:44:39;;;;;;;2.92;1.52;;;6.60;99.90;;;;;;4956960;28;20498;-81
2021/01/21 05:47:09;;;;;;;3.15;1.63;;;6.60;99.90;;;;;;4957158;28;20027;-81
2021/01/21 05:49:35;;;;;;;2.55;1.50;;;6.60;99.90;;;;;;4955820;29;20034;-81
2021/01/21 05:52:02;;;;;;;2.85;1.55;;;6.70;99.90;;;;;;4955754;29;20027;-82
2021/01/21 05:54:29;;;;;;;1.77;1.10;;;6.70;99.90;;;;;;4957256;28;20050;-81
2021/01/21 05:56:59;;;;;;;2.20;1.10;;;6.70;99.90;;;;;;4957134;28;20476;-82
2021/01/21 05:59:27;;;;;;;3.13;1.27;;;6.80;99.90;;;;;;4957405;28;20490;-81
2021/01/21 06:01:54;;;;;;;2.85;1.30;;;6.80;99.90;;;;;;4956816;28;20050;-81
2021/01/21 06:04:25;;;;;;;2.67;1.60;;;6.70;99.90;;;;;;4956707;28;20103;-81
2021/01/21 06:06:52;;;;;;;4.30;1.70;;;6.70;99.90;;;;;;4955531;29;20027;-81
2021/01/21 06:09:38;;;;;;;2.22;1.42;;;6.70;99.90;;;;;;4955417;29;20035;-81
2021/01/21 06:12:06;;;;;;;4.03;1.85;;;6.70;99.90;;;;;;4955342;29;20039;-81
2021/01/21 06:14:32;;;;;;;2.00;1.25;;;6.60;99.90;;;;;;4955333;29;20110;-81
2021/01/21 06:16:58;;;;;;;3.50;1.60;;;6.60;99.90;;;;;;4955258;29;20615;-80
2021/01/21 06:19:24;;;;;;;6.68;1.48;;;6.60;99.90;;;;;;4955233;29;20113;-81
2021/01/21 06:22:08;;;;;;;2.75;1.70;;;6.60;99.90;;;;;;4955208;29;20122;-80
2021/01/21 06:24:44;;;;;;;4.85;1.70;;;6.50;99.90;;;;;;4956521;28;20430;-81
2021/01/21 06:27:10;;;;;;;2.83;1.77;;;6.50;99.90;;;;;;4956638;28;20050;-81
2021/01/21 06:29:37;;;;;;;2.45;1.63;;;6.40;99.90;;;;;;4956640;28;20039;-82
2021/01/21 06:32:04;;;;;;;2.92;1.23;;;6.30;99.90;;;;;;4956378;28;20483;-81
2021/01/21 06:34:38;;;;;;;13.63;3.60;;;6.40;99.90;;;;;;4955129;29;20038;-80
2021/01/21 06:37:11;;;;;;;2.33;1.45;;;6.50;99.90;;;;;;4956272;28;20035;-82
2021/01/21 06:39:56;;;;;;;3.45;1.70;;;6.50;99.90;;;;;;4954917;29;20035;-81
2021/01/21 06:42:33;;;;;;;4.90;1.60;;;6.30;99.90;;;;;;4955332;28;20023;-82
2021/01/21 06:44:59;;;;;;;4.53;1.40;;;6.30;99.90;;;;;;4954622;29;20122;-83
2021/01/21 06:47:27;;;;;;;2.22;1.50;;;6.20;99.90;;;;;;4956057;28;20055;-84
2021/01/21 06:50:00;;;;;;;3.40;1.50;;;6.30;99.90;;;;;;4956006;28;20029;-81
2021/01/21 06:52:36;;;;;;;2.75;1.38;;;6.20;99.90;;;;;;4954627;29;20027;-83
2021/01/21 06:55:03;;;;;;;4.00;1.40;;;6.30;99.90;;;;;;4954681;29;20450;-82
2021/01/21 06:57:35;;;;;;;2.03;1.40;;;6.10;99.90;;;;;;4954766;29;20372;-83
2021/01/21 07:00:01;;;;;;;3.97;1.50;;;6.30;99.90;;;;;;4954552;29;20054;-83
2021/01/21 07:02:42;;;;;;;4.55;1.60;;;6.20;99.90;;;;;;4955745;28;20027;-83
2021/01/21 07:05:12;;;;;;;4.00;1.58;;;6.20;99.90;;;;;;4954451;29;20031;-83
2021/01/21 07:07:53;;;;;;;1.92;1.40;;;6.40;99.90;;;;;;4954469;29;20027;-83
2021/01/21 07:10:23;;;;;;;2.97;1.70;;;6.40;99.90;;;;;;4955691;28;20027;-83
2021/01/21 07:12:49;;;;;;;3.20;1.67;;;6.40;99.90;;;;;;4954627;29;20439;-82
2021/01/21 07:15:15;;;;;;;4.40;1.55;;;6.30;99.90;;;;;;4955540;28;20023;-85
2021/01/21 07:17:42;;;;;;;3.78;1.40;;;6.20;99.90;;;;;;4954311;29;20023;-82
2021/01/21 07:20:08;;;;;;;1.83;1.50;;;6.10;99.90;;;;;;4954324;29;20499;-84
2021/01/21 07:22:33;;;;;;;1.75;1.38;;;6.10;99.90;;;;;;4955806;28;20028;-83
2021/01/21 07:25:04;;;;;;;3.22;1.55;;;6.30;99.90;;;;;;4954202;29;20110;-83
2021/01/21 07:27:32;;;;;;;2.25;1.38;;;6.30;99.90;;;;;;4955456;28;20479;-83
2021/01/21 07:30:17;;;;;;;2.78;1.70;;;6.20;99.90;;;;;;4954148;29;20031;-84
2021/01/21 07:32:43;;;;;;;;;;;6.30;99.90;;;;;;4954558;29;20037;-81
2021/01/21 07:35:31;;;;;;;1.80;1.10;;;6.40;99.90;;;;;;4954164;29;20355;-82
2021/01/21 07:37:57;;;;;;;2.63;1.17;;;6.40;99.90;;;;;;4955313;28;20034;-84
2021/01/21 07:40:41;;;;;;;2.05;1.27;;;6.40;99.90;;;;;;4954099;29;20057;-81
2021/01/21 07:43:07;;;;;;;1.95;1.38;;;6.50;99.90;;;;;;4955400;28;20027;-82
2021/01/21 07:45:32;;;;;;;2.50;1.52;;;6.60;99.90;;;;;;4953843;29;20055;-81
2021/01/21 07:48:18;;;;;;;3.05;1.27;;;6.60;99.90;;;;;;4955312;28;20027;-81
2021/01/21 07:50:44;;;;;;;3.10;1.20;;;6.70;99.90;;;;;;4954079;29;20050;-81
2021/01/21 07:53:22;;;;;;;2.00;1.20;;;6.60;99.90;;;;;;4954554;28;20023;-82
2021/01/21 07:55:49;;;;;;;2.88;1.20;;;6.70;99.90;;;;;;4959080;28;20501;-82
2021/01/21 07:58:19;;;;;;;3.13;1.30;;;6.60;99.90;;;;;;4959304;28;20015;-81
2021/01/21 08:00:46;;;;;;;2.55;1.35;;;6.70;99.90;;;;;;4957773;29;20023;-82
2021/01/21 08:03:13;;;;;;;2.50;1.25;;;6.90;99.90;;;;;;4957714;29;20028;-83
2021/01/21 08:05:38;;;;;;;2.75;1.30;;;6.90;99.90;;;;;;4957623;29;20038;-82
2021/01/21 08:08:05;;;;;;;1.50;0.90;;;6.90;99.90;;;;;;4959443;28;20023;-81
2021/01/21 08:10:35;;;;;;;5.20;1.55;;;6.90;99.90;;;;;;4957613;29;20031;-82
2021/01/21 08:13:15;;;;;;;2.63;1.00;;;6.90;99.90;;;;;;4957546;29;20478;-82
2021/01/21 08:15:41;;;;;;;2.13;1.20;;;6.90;99.90;;;;;;4957444;29;20031;-82
2021/01/21 08:18:14;;;;;;;3.00;1.15;;;7.00;99.90;;;;;;4958720;28;20024;-82
2021/01/21 08:20:40;;;;;;;2.97;1.00;;;7.10;99.90;;;;;;4959033;28;20023;-81
2021/01/21 08:23:09;;;;;;;1.92;1.23;;;7.10;99.90;;;;;;4957341;29;20027;-82
2021/01/21 08:25:39;;;;;;;2.67;1.00;;;7.00;99.90;;;;;;4958820;28;20024;-82
2021/01/21 08:28:05;;;;;;;2.78;1.10;;;7.10;99.90;;;;;;4958541;28;20059;-83
2021/01/21 08:30:31;;;;;;;2.60;1.15;;;7.20;99.90;;;;;;4957256;29;20023;-82
2021/01/21 08:33:02;;;;;;;2.60;1.00;;;7.10;99.90;;;;;;4958431;28;20023;-83
2021/01/21 08:35:30;;;;;;;3.00;1.15;;;7.00;99.90;;;;;;4957098;29;20538;-82
2021/01/21 08:37:58;;;;;;;2.13;0.82;;;7.30;99.90;;;;;;4957005;28;20464;-83
2021/01/21 08:40:24;;;;;;;3.00;1.25;;;7.40;99.90;;;;;;4957068;29;20526;-83
2021/01/21 08:42:51;;;;;;;2.03;1.20;;;7.20;99.90;;;;;;4956995;29;20534;-83
2021/01/21 08:45:19;;;;;;;3.30;1.15;;;7.20;99.90;;;;;;4958032;28;20525;-84
2021/01/21 08:47:49;;;;;;;2.72;1.35;;;7.10;99.90;;;;;;4956949;29;20051;-83
2021/01/21 08:50:18;;;;;;;4.70;2.25;;;7.30;99.90;;;;;;4958672;28;20031;-84
2021/01/21 08:53:08;;;;;;;2.50;1.40;;;7.40;99.90;;;;;;4956868;29;20023;-83
2021/01/21 08:55:42;;;;;;;1.50;1.13;;;7.80;99.90;;;;;;4956732;29;20038;-83
2021/01/21 08:58:11;;;;;;;1.83;1.00;;;8.00;99.90;;;;;;4956683;29;20031;-83
2021/01/21 09:00:38;;;;;;;1.08;0.80;;;7.70;99.90;;;;;;4956695;29;20114;-85
2021/01/21 09:03:04;;;;;;;2.08;1.40;;;7.60;99.90;;;;;;4956697;29;20074;-85
2021/01/21 09:05:30;;;;;;;2.15;1.05;;;7.50;99.90;;;;;;4957010;28;20491;-85
2021/01/21 09:08:08;;;;;;;2.00;1.20;;;7.50;99.90;;;;;;4957896;28;20050;-85
2021/01/21 09:10:43;;;;;;;2.38;0.90;;;7.60;99.90;;;;;;4957797;28;20027;-85
2021/01/21 09:13:09;;;;;;;1.95;1.00;;;7.60;99.90;;;;;;4956553;29;20027;-85
2021/01/21 09:15:55;;;;;;;2.00;1.20;;;7.90;99.90;;;;;;4956381;29;20436;-85
2021/01/21 09:18:45;;;;;;;2.28;1.15;;;8.20;99.90;;;;;;4956409;29;20480;-84
2021/01/21 09:21:14;;;;;;;3.53;1.10;;;8.50;99.90;;;;;;4957897;28;20054;-84
2021/01/21 09:23:40;;;;;;;1.95;1.10;;;8.50;99.90;;;;;;4957474;28;20039;-83
2021/01/21 09:26:13;;;;;;;4.82;1.05;;;8.40;99.90;;;;;;4956267;29;20539;-83
2021/01/21 09:28:55;;;;;;;1.40;0.90;;;8.60;99.90;;;;;;4957458;28;20419;-85
2021/01/21 09:31:22;;;;;;;1.98;1.08;;;8.60;99.90;;;;;;4956175;29;20372;-84
2021/01/21 09:33:54;;;;;;;0.85;0.70;;;8.60;99.90;;;;;;4957440;28;20039;-85
2021/01/21 09:36:25;;;;;;;1.85;0.60;;;9.00;99.90;;;;;;4957233;28;20027;-82
2021/01/21 09:38:51;;;;;;;1.92;0.90;;;9.10;99.90;;;;;;4957310;28;20054;-86
2021/01/21 09:41:16;;;;;;;2.42;1.10;;;9.40;99.90;;;;;;4957319;28;20054;-86
2021/01/21 09:43:42;;;;;;;1.85;0.80;;;9.50;99.90;;;;;;4957223;28;20024;-83
2021/01/21 09:46:08;;;;;;;1.38;0.80;;;9.50;99.90;;;;;;4955693;29;20051;-86
2021/01/21 09:48:34;;;;;;;3.00;1.52;;;9.60;99.90;;;;;;4957170;28;20052;-86
2021/01/21 09:51:00;;;;;;;1.23;0.80;;;9.50;99.90;;;;;;4955848;29;20479;-86
2021/01/21 09:53:26;;;;;;;3.08;0.98;;;9.70;99.90;;;;;;4957126;28;20523;-85
2021/01/21 09:55:55;;;;;;;1.63;0.90;;;9.80;99.90;;;;;;4955734;29;20047;-86
2021/01/21 09:58:22;;;;;;;3.35;1.08;;;9.80;99.90;;;;;;4956924;28;20075;-85
2021/01/21 10:00:48;;;;;;;1.88;0.80;;;9.90;99.90;;;;;;4956915;28;20028;-85
2021/01/21 10:03:14;;;;;;;1.75;1.00;;;10.20;99.90;;;;;;4956837;28;20020;-86
2021/01/21 10:05:40;;;;;;;4.30;0.93;;;10.20;99.90;;;;;;4956800;28;20047;-86
2021/01/21 10:08:06;;;;;;;2.28;0.85;;;9.90;99.90;;;;;;4955544;29;20124;-83
2021/01/21 10:10:31;;;;;;;2.78;0.90;;;10.20;99.90;;;;;;4955523;29;20023;-84
2021/01/21 10:12:57;;;;;;;3.70;0.93;;;10.30;99.90;;;;;;4956907;28;20027;-85
2021/01/21 10:15:23;;;;;;;1.85;0.93;;;10.30;99.90;;;;;;4955257;29;20107;-86
2021/01/21 10:17:48;;;;;;;1.27;0.82;;;10.50;99.90;;;;;;4955549;28;20027;-87
2021/01/21 10:20:14;;;;;;;3.40;0.90;;;10.20;99.90;;;;;;4957196;28;20027;-88
2021/01/21 10:22:40;;;;;;;2.58;1.00;;;9.90;99.90;;;;;;4955819;29;20046;-88
2021/01/21 10:25:07;;;;;;;1.52;1.00;;;9.70;99.90;;;;;;4956008;29;20121;-88
2021/01/21 10:27:32;;;;;;;3.08;0.60;;;9.70;99.90;;;;;;4956801;28;20101;-89
2021/01/21 10:29:58;;;;;;;3.85;1.02;;;10.00;99.90;;;;;;4956172;29;20035;-86
2021/01/21 10:32:24;;;;;;;2.08;1.10;;;10.10;99.90;;;;;;4955189;29;20481;-88
2021/01/21 10:34:49;;;;;;;2.33;1.00;;;9.80;99.90;;;;;;4956559;28;20027;-89
2021/01/21 10:37:15;;;;;;;4.68;0.75;;;9.70;99.90;;;;;;4955188;28;20476;-89
2021/01/21 10:39:41;;;;;;;2.45;0.95;;;9.50;99.90;;;;;;4955031;29;20112;-88
2021/01/21 10:42:06;;;;;;;2.33;0.93;;;9.30;99.90;;;;;;4955492;29;20113;-89
2021/01/21 10:44:32;;;;;;;1.63;0.95;;;9.10;99.90;;;;;;4956796;28;20019;-89
2021/01/21 10:46:58;;;;;;;1.40;1.00;;;9.10;99.90;;;;;;4955185;29;20136;-89
2021/01/21 10:49:23;;;;;;;8.80;2.63;;;9.20;99.90;;;;;;4955047;29;20479;-89
2021/01/21 10:51:49;;;;;;;6.13;2.30;;;9.20;99.90;;;;;;4956242;28;20031;-89
2021/01/21 10:54:15;;;;;;;63.33;35.83;;;9.20;99.90;;;;;;4955052;29;20481;-89
2021/01/21 10:56:40;;;;;;;25.60;12.50;;;9.10;99.90;;;;;;4955066;29;20027;-89
2021/01/21 10:59:06;;;;;;;3.80;2.33;;;9.20;99.90;;;;;;4954673;29;20029;-89
2021/01/21 11:01:33;;;;;;;20.02;10.98;;;9.30;99.90;;;;;;4954825;29;20047;-89
2021/01/21 11:03:59;;;;;;;8.02;5.13;;;9.30;99.90;;;;;;4954709;29;20082;-87
2021/01/21 11:06:24;;;;;;;1.20;0.95;;;9.30;99.90;;;;;;4956175;28;20054;-88
2021/01/21 11:08:50;;;;;;;1.98;0.80;;;9.50;99.90;;;;;;4955890;28;20038;-87
2021/01/21 11:11:16;;;;;;;2.50;1.15;;;9.60;99.90;;;;;;4954519;29;20027;-89
2021/01/21 11:13:42;;;;;;;2.75;0.98;;;9.80;99.90;;;;;;4954660;29;20031;-88
2021/01/21 11:16:09;;;;;;;1.48;0.70;;;9.80;99.90;;;;;;4954458;29;20101;-88
2021/01/21 11:18:35;;;;;;;1.50;0.88;;;10.00;99.90;;;;;;4955712;28;20428;-89
2021/01/21 11:21:01;;;;;;;0.90;0.60;;;10.30;99.90;;;;;;4954504;29;20055;-89
2021/01/21 11:23:27;;;;;;;1.20;0.50;;;10.40;99.90;;;;;;4955900;28;20402;-87
2021/01/21 11:25:52;;;;;;;3.35;1.10;;;10.30;99.90;;;;;;4956252;28;20038;-89
2021/01/21 11:28:20;;;;;;;1.67;1.00;;;10.10;99.90;;;;;;4954305;28;20113;-89
2021/01/21 11:30:48;;;;;;;2.85;1.10;;;10.00;99.90;;;;;;4954522;29;20462;-89
2021/01/21 11:33:14;;;;;;;2.45;1.10;;;10.00;99.90;;;;;;4954604;29;20034;-89
2021/01/21 11:35:40;;;;;;;1.83;0.93;;;10.10;99.90;;;;;;4954479;29;20497;-89
2021/01/21 11:38:06;;;;;;;3.55;1.08;;;10.00;99.90;;;;;;4954140;28;20114;-86
2021/01/21 11:40:32;;;;;;;1.55;1.13;;;9.90;99.90;;;;;;4954572;29;20498;-89
2021/01/21 11:42:58;;;;;;;2.00;1.10;;;10.10;99.90;;;;;;4954747;29;20031;-89
2021/01/21 11:45:23;;;;;;;5.47;1.10;;;10.20;99.90;;;;;;4954489;29;20054;-89
2021/01/21 11:47:49;;;;;;;1.88;1.20;;;10.10;99.90;;;;;;4954464;29;20118;-89
2021/01/21 11:50:16;;;;;;;1.75;1.17;;;10.10;99.90;;;;;;4954549;29;20114;-89
2021/01/21 11:52:44;;;;;;;2.33;1.20;;;9.90;99.90;;;;;;4956028;28;20043;-89
2021/01/21 11:55:11;;;;;;;4.68;1.25;;;9.70;99.90;;;;;;4955614;28;20360;-89
2021/01/21 11:57:38;;;;;;;2.40;0.90;;;9.60;99.90;;;;;;4954390;29;20059;-89
2021/01/21 12:00:12;;;;;;;2.03;1.02;;;9.70;99.90;;;;;;4954590;29;20027;-88
2021/01/21 12:02:38;;;;;;;2.00;0.98;;;9.70;99.90;;;;;;4954212;29;20427;-89
2021/01/21 12:05:04;;;;;;;1.88;0.90;;;9.80;99.90;;;;;;4954474;29;20027;-88
2021/01/21 12:07:30;;;;;;;1.45;0.70;;;9.70;99.90;;;;;;4954423;29;20063;-87
2021/01/21 12:09:56;;;;;;;4.05;2.67;;;9.60;99.90;;;;;;4954148;29;20135;-89
2021/01/21 12:12:22;;;;;;;1.38;0.93;;;9.70;99.90;;;;;;4955977;28;20027;-89
2021/01/21 12:14:49;;;;;;;7.95;4.30;;;9.70;99.90;;;;;;4954456;29;20039;-89
2021/01/21 12:17:14;;;;;;;1.23;0.80;;;9.70;99.90;;;;;;4953897;29;20031;-83
2021/01/21 12:19:40;;;;;;;1.40;1.00;;;9.70;99.90;;;;;;4954831;28;20435;-82
2021/01/21 12:22:06;;;;;;;2.63;1.00;;;9.40;99.90;;;;;;4953647;29;20079;-81
2021/01/21 12:24:31;;;;;;;2.08;0.95;;;9.30;99.90;;;;;;4953692;29;20110;-81
2021/01/21 12:26:57;;;;;;;2.03;0.98;;;9.30;99.90;;;;;;4955051;28;20159;-81
2021/01/21 12:29:23;;;;;;;1.50;1.00;;;9.30;99.90;;;;;;4953752;29;20142;-81
2021/01/21 12:31:49;;;;;;;2.35;1.40;;;9.20;99.90;;;;;;4953839;29;20027;-82
2021/01/21 12:34:15;;;;;;;1.25;0.90;;;9.30;99.90;;;;;;4953705;29;20035;-81
2021/01/21 12:36:40;;;;;;;3.40;1.20;;;9.30;99.90;;;;;;4953643;28;20057;-81
2021/01/21 12:39:06;;;;;;;2.55;0.80;;;9.40;99.90;;;;;;4953608;28;20019;-81
2021/01/21 12:41:33;;;;;;;2.10;0.80;;;9.50;99.90;;;;;;4956126;29;20027;-81
2021/01/21 12:43:59;;;;;;;1.45;1.00;;;9.50;99.90;;;;;;4956999;29;20395;-81
2021/01/21 12:46:27;;;;;;;1.20;0.90;;;9.70;99.90;;;;;;4956705;29;20058;-81
2021/01/21 12:48:54;;;;;;;2.63;1.17;;;9.70;99.90;;;;;;4958459;28;20027;-81
2021/01/21 12:51:20;;;;;;;2.15;1.20;;;9.70;99.90;;;;;;4958723;28;20463;-81
2021/01/21 12:53:45;;;;;;;2.05;1.25;;;9.60;99.90;;;;;;4956835;29;20043;-82
2021/01/21 12:56:11;;;;;;;2.42;1.33;;;9.60;99.90;;;;;;4958191;28;20028;-80
2021/01/21 12:58:37;;;;;;;3.35;1.25;;;9.70;99.90;;;;;;4958006;28;20379;-81